Disclaimer

Please do not use the information listed here in-flight or in-navigation, as they are not provided to us by the airports but are provided by volunteers, so they might be outdated.

Search


Regions


Airport information page

Radio informations:
SAO VICENTE TWR - 118.4 MHz
SAO VICENTE APP - 118.4 MHz

Airport informations:
Latitude: 16° 50' 01.28" N
Longitude: 025° 03' 16.78" W
Elevation: 66 feet - 20 meters
Operating hours: N/A
Operating agency: Civil government, landing fees and diplomatic clearance may be required
Timezone: UTC-1
Fuel: Jet A, without icing inhibitor.

Jet A1, without icing nhibitor.

Runway information:
07/25 - 6480 x 148 feet< - >1975 x 45 meters

Recent METARs:
GVSV 131400Z 06022KT 9999 SCT025 28/16 Q1015 NOSIG
GVSV 131500Z 05020G30KT 9999 SCT024 28/17 Q1014 NOSIG
GVSV 131500Z 05020G30KT 9999 SCT024 28/17 Q1014 NOSIG

Airport on the map: